Terminal Aerodrome Forecast
Issued by NWS

Home | Current Version | Previous Version | Text Only | Print | Product List | Glossary On
Versions: 1 2 3 4 5 6 7 8 9 10 11 12 13 14 15 16 17 18
000
FTUS44 KLZK 251132
TAFHRO
TAF
KHRO 251132Z 2512/2612 24003KT P6SM OVC120
     FM251500 34005KT P6SM SCT100 SCT250
     FM252300 02004KT P6SM SCT250
     FM260600 12003KT P6SM SCT250=

USA.gov is the U.S. government's official web portal to all federal, state and local government web resources and services.